Haskell, Texas
Current Conditions -  °F | °C
As of 5:52 PM on Friday 24 Oct 2014 (Local Time) from KABI Reporting Station
Clear Clear  
Wind Chill: 85°   Ceiling: Unl
Heat Index: 85°   Visibility: 10mi
Dew Point: 52°   Wind: 10mph
Humidity: 32%   Direction: 200°SSW
Pressure: 30.09"   Gusts: NA
Location:  33.16°N, 99.73°W
Report Text: KABI 242252Z 20009KT 10SM CLR 29/11 A3009 RMK AO2 SLP166 T02940111 $
Loading
Personal Weather Stations






























Interactive Weather Map
Tropical Storm Tracking
New forecast layout! Learn more

10-Day Weather Forecast

Advertisements
Track Severe Weather on mobile